sensor_id;sensor_type;location;lat;lon;timestamp;P1;durP1;ratioP1;P2;durP2;ratioP2
11797;SDS011;5956;51.428;6.682;2023-08-01T00:02:26;0.80;;;0.80;;
11797;SDS011;5956;51.428;6.682;2023-08-01T00:04:53;0.85;;;0.70;;
11797;SDS011;5956;51.428;6.682;2023-08-01T00:07:19;0.95;;;0.93;;
11797;SDS011;5956;51.428;6.682;2023-08-01T00:09:46;2.17;;;1.10;;
11797;SDS011;5956;51.428;6.682;2023-08-01T00:12:12;0.80;;;0.70;;
11797;SDS011;5956;51.428;6.682;2023-08-01T00:14:39;0.93;;;0.93;;
11797;SDS011;5956;51.428;6.682;2023-08-01T00:17:05;1.60;;;0.80;;
11797;SDS011;5956;51.428;6.682;2023-08-01T00:19:33;1.17;;;1.08;;
11797;SDS011;5956;51.428;6.682;2023-08-01T00:22:00;0.98;;;0.98;;
11797;SDS011;5956;51.428;6.682;2023-08-01T00:24:26;1.00;;;1.00;;
11797;SDS011;5956;51.428;6.682;2023-08-01T00:26:52;1.00;;;1.00;;
11797;SDS011;5956;51.428;6.682;2023-08-01T00:29:20;0.85;;;0.85;;
11797;SDS011;5956;51.428;6.682;2023-08-01T00:31:46;1.40;;;1.35;;
11797;SDS011;5956;51.428;6.682;2023-08-01T00:34:13;1.00;;;1.00;;
11797;SDS011;5956;51.428;6.682;2023-08-01T00:36:41;1.20;;;0.98;;
11797;SDS011;5956;51.428;6.682;2023-08-01T00:39:08;1.00;;;1.00;;
11797;SDS011;5956;51.428;6.682;2023-08-01T00:41:34;1.42;;;1.00;;
11797;SDS011;5956;51.428;6.682;2023-08-01T00:44:01;1.65;;;1.30;;
11797;SDS011;5956;51.428;6.682;2023-08-01T00:46:28;1.25;;;0.88;;
11797;SDS011;5956;51.428;6.682;2023-08-01T00:48:55;1.10;;;1.10;;
11797;SDS011;5956;51.428;6.682;2023-08-01T00:51:23;1.45;;;1.35;;
11797;SDS011;5956;51.428;6.682;2023-08-01T00:53:52;2.92;;;1.30;;
11797;SDS011;5956;51.428;6.682;2023-08-01T00:56:18;1.05;;;0.98;;
11797;SDS011;5956;51.428;6.682;2023-08-01T00:58:45;1.48;;;1.38;;
11797;SDS011;5956;51.428;6.682;2023-08-01T01:01:12;1.23;;;1.13;;
11797;SDS011;5956;51.428;6.682;2023-08-01T01:03:38;1.58;;;1.20;;
11797;SDS011;5956;51.428;6.682;2023-08-01T01:06:07;1.10;;;1.10;;
11797;SDS011;5956;51.428;6.682;2023-08-01T01:08:35;2.22;;;1.58;;
11797;SDS011;5956;51.428;6.682;2023-08-01T01:11:03;1.50;;;1.40;;
11797;SDS011;5956;51.428;6.682;2023-08-01T01:13:30;1.65;;;1.40;;
11797;SDS011;5956;51.428;6.682;2023-08-01T01:15:57;1.25;;;1.20;;
11797;SDS011;5956;51.428;6.682;2023-08-01T01:18:23;1.77;;;1.20;;
11797;SDS011;5956;51.428;6.682;2023-08-01T01:20:51;1.50;;;1.40;;
11797;SDS011;5956;51.428;6.682;2023-08-01T01:23:18;1.17;;;1.17;;
11797;SDS011;5956;51.428;6.682;2023-08-01T01:25:45;1.45;;;1.10;;
11797;SDS011;5956;51.428;6.682;2023-08-01T01:28:12;1.52;;;1.38;;
11797;SDS011;5956;51.428;6.682;2023-08-01T01:30:39;4.93;;;2.05;;
11797;SDS011;5956;51.428;6.682;2023-08-01T01:33:05;1.77;;;1.70;;
11797;SDS011;5956;51.428;6.682;2023-08-01T01:35:33;4.10;;;2.20;;
11797;SDS011;5956;51.428;6.682;2023-08-01T01:38:01;1.92;;;1.83;;
11797;SDS011;5956;51.428;6.682;2023-08-01T01:40:28;2.25;;;2.15;;
11797;SDS011;5956;51.428;6.682;2023-08-01T01:42:55;2.15;;;1.95;;
11797;SDS011;5956;51.428;6.682;2023-08-01T01:45:21;2.30;;;2.20;;
11797;SDS011;5956;51.428;6.682;2023-08-01T01:47:48;1.85;;;1.75;;
11797;SDS011;5956;51.428;6.682;2023-08-01T01:50:14;2.03;;;1.92;;
11797;SDS011;5956;51.428;6.682;2023-08-01T01:52:41;2.15;;;2.00;;
11797;SDS011;5956;51.428;6.682;2023-08-01T01:55:09;2.25;;;2.15;;
11797;SDS011;5956;51.428;6.682;2023-08-01T01:57:35;2.85;;;2.65;;
11797;SDS011;5956;51.428;6.682;2023-08-01T02:00:02;2.42;;;2.30;;
11797;SDS011;5956;51.428;6.682;2023-08-01T02:02:29;3.25;;;2.65;;
11797;SDS011;5956;51.428;6.682;2023-08-01T02:04:55;2.88;;;2.67;;
11797;SDS011;5956;51.428;6.682;2023-08-01T02:07:22;3.17;;;2.97;;
11797;SDS011;5956;51.428;6.682;2023-08-01T02:09:48;4.82;;;2.80;;
11797;SDS011;5956;51.428;6.682;2023-08-01T02:12:16;3.17;;;2.97;;
11797;SDS011;5956;51.428;6.682;2023-08-01T02:14:43;3.38;;;3.05;;
11797;SDS011;5956;51.428;6.682;2023-08-01T02:17:09;2.80;;;2.70;;
11797;SDS011;5956;51.428;6.682;2023-08-01T02:19:36;3.63;;;3.13;;
11797;SDS011;5956;51.428;6.682;2023-08-01T02:22:02;4.15;;;3.50;;
11797;SDS011;5956;51.428;6.682;2023-08-01T02:24:29;3.88;;;3.38;;
11797;SDS011;5956;51.428;6.682;2023-08-01T02:26:55;4.22;;;3.92;;
11797;SDS011;5956;51.428;6.682;2023-08-01T02:29:23;6.18;;;4.40;;
11797;SDS011;5956;51.428;6.682;2023-08-01T02:31:49;5.57;;;4.57;;
11797;SDS011;5956;51.428;6.682;2023-08-01T02:34:16;6.80;;;4.80;;
11797;SDS011;5956;51.428;6.682;2023-08-01T02:36:42;5.25;;;4.75;;
11797;SDS011;5956;51.428;6.682;2023-08-01T02:39:09;5.90;;;5.50;;
11797;SDS011;5956;51.428;6.682;2023-08-01T02:41:35;6.97;;;6.32;;
11797;SDS011;5956;51.428;6.682;2023-08-01T02:44:02;8.65;;;6.90;;
11797;SDS011;5956;51.428;6.682;2023-08-01T02:46:30;8.95;;;8.15;;
11797;SDS011;5956;51.428;6.682;2023-08-01T02:48:56;8.18;;;7.38;;
11797;SDS011;5956;51.428;6.682;2023-08-01T02:51:23;9.82;;;8.85;;
11797;SDS011;5956;51.428;6.682;2023-08-01T02:53:49;9.65;;;8.75;;
11797;SDS011;5956;51.428;6.682;2023-08-01T02:56:15;10.75;;;9.63;;
11797;SDS011;5956;51.428;6.682;2023-08-01T02:58:42;11.40;;;9.68;;
11797;SDS011;5956;51.428;6.682;2023-08-01T03:01:08;9.60;;;8.88;;
11797;SDS011;5956;51.428;6.682;2023-08-01T03:03:37;11.15;;;9.77;;
11797;SDS011;5956;51.428;6.682;2023-08-01T03:06:03;10.88;;;9.80;;
11797;SDS011;5956;51.428;6.682;2023-08-01T03:08:29;10.27;;;9.32;;
11797;SDS011;5956;51.428;6.682;2023-08-01T03:10:56;11.13;;;10.07;;
11797;SDS011;5956;51.428;6.682;2023-08-01T03:13:23;12.40;;;10.82;;
11797;SDS011;5956;51.428;6.682;2023-08-01T03:15:49;10.88;;;9.85;;
11797;SDS011;5956;51.428;6.682;2023-08-01T03:18:16;13.18;;;10.10;;
11797;SDS011;5956;51.428;6.682;2023-08-01T03:20:43;10.77;;;9.38;;
11797;SDS011;5956;51.428;6.682;2023-08-01T03:23:10;13.73;;;10.02;;
11797;SDS011;5956;51.428;6.682;2023-08-01T03:25:36;10.60;;;9.50;;
11797;SDS011;5956;51.428;6.682;2023-08-01T03:28:03;11.40;;;8.77;;
11797;SDS011;5956;51.428;6.682;2023-08-01T03:30:31;10.95;;;9.68;;
11797;SDS011;5956;51.428;6.682;2023-08-01T03:32:57;12.63;;;9.65;;
11797;SDS011;5956;51.428;6.682;2023-08-01T03:35:24;11.85;;;9.82;;
11797;SDS011;5956;51.428;6.682;2023-08-01T03:37:51;11.48;;;10.27;;
11797;SDS011;5956;51.428;6.682;2023-08-01T03:40:18;14.80;;;10.52;;
11797;SDS011;5956;51.428;6.682;2023-08-01T03:42:45;11.20;;;10.10;;
11797;SDS011;5956;51.428;6.682;2023-08-01T03:45:11;12.50;;;10.40;;
11797;SDS011;5956;51.428;6.682;2023-08-01T03:47:37;12.88;;;10.48;;
11797;SDS011;5956;51.428;6.682;2023-08-01T03:50:04;15.02;;;10.80;;
11797;SDS011;5956;51.428;6.682;2023-08-01T03:52:31;13.70;;;11.07;;
11797;SDS011;5956;51.428;6.682;2023-08-01T03:54:59;11.90;;;10.73;;
11797;SDS011;5956;51.428;6.682;2023-08-01T03:57:25;12.82;;;11.48;;
11797;SDS011;5956;51.428;6.682;2023-08-01T03:59:52;12.00;;;10.73;;
11797;SDS011;5956;51.428;6.682;2023-08-01T04:02:18;13.48;;;11.15;;
11797;SDS011;5956;51.428;6.682;2023-08-01T04:04:45;14.73;;;11.27;;
11797;SDS011;5956;51.428;6.682;2023-08-01T04:07:11;14.63;;;13.27;;
11797;SDS011;5956;51.428;6.682;2023-08-01T04:09:38;13.88;;;11.82;;
11797;SDS011;5956;51.428;6.682;2023-08-01T04:12:06;16.88;;;13.15;;
11797;SDS011;5956;51.428;6.682;2023-08-01T04:14:32;15.70;;;14.18;;
11797;SDS011;5956;51.428;6.682;2023-08-01T04:16:59;17.20;;;13.73;;
11797;SDS011;5956;51.428;6.682;2023-08-01T04:19:25;14.80;;;13.27;;
11797;SDS011;5956;51.428;6.682;2023-08-01T04:21:52;14.93;;;13.30;;
11797;SDS011;5956;51.428;6.682;2023-08-01T04:24:18;18.13;;;16.10;;
11797;SDS011;5956;51.428;6.682;2023-08-01T04:26:45;19.80;;;17.67;;
11797;SDS011;5956;51.428;6.682;2023-08-01T04:29:13;19.50;;;14.13;;
11797;SDS011;5956;51.428;6.682;2023-08-01T04:31:40;16.48;;;12.98;;
11797;SDS011;5956;51.428;6.682;2023-08-01T04:34:07;13.88;;;11.45;;
11797;SDS011;5956;51.428;6.682;2023-08-01T04:36:33;15.05;;;11.75;;
11797;SDS011;5956;51.428;6.682;2023-08-01T04:38:59;14.32;;;12.27;;
11797;SDS011;5956;51.428;6.682;2023-08-01T04:41:26;15.93;;;12.45;;
11797;SDS011;5956;51.428;6.682;2023-08-01T04:43:53;24.15;;;21.80;;
11797;SDS011;5956;51.428;6.682;2023-08-01T04:46:21;16.65;;;14.90;;
11797;SDS011;5956;51.428;6.682;2023-08-01T04:48:47;16.67;;;13.60;;
11797;SDS011;5956;51.428;6.682;2023-08-01T04:51:14;15.65;;;12.98;;
11797;SDS011;5956;51.428;6.682;2023-08-01T04:53:40;14.98;;;13.32;;
11797;SDS011;5956;51.428;6.682;2023-08-01T04:56:07;14.90;;;13.40;;
11797;SDS011;5956;51.428;6.682;2023-08-01T04:58:33;15.77;;;14.10;;
11797;SDS011;5956;51.428;6.682;2023-08-01T05:01:00;15.80;;;13.23;;
11797;SDS011;5956;51.428;6.682;2023-08-01T05:03:28;17.00;;;14.70;;
11797;SDS011;5956;51.428;6.682;2023-08-01T05:05:54;22.23;;;19.88;;
11797;SDS011;5956;51.428;6.682;2023-08-01T05:08:21;20.15;;;17.88;;
11797;SDS011;5956;51.428;6.682;2023-08-01T05:10:47;18.85;;;16.17;;
11797;SDS011;5956;51.428;6.682;2023-08-01T05:13:14;22.60;;;15.60;;
11797;SDS011;5956;51.428;6.682;2023-08-01T05:15:40;18.77;;;16.85;;
11797;SDS011;5956;51.428;6.682;2023-08-01T05:18:07;21.48;;;17.23;;
11797;SDS011;5956;51.428;6.682;2023-08-01T05:20:35;18.33;;;16.58;;
11797;SDS011;5956;51.428;6.682;2023-08-01T05:23:01;18.75;;;16.85;;
11797;SDS011;5956;51.428;6.682;2023-08-01T05:25:28;19.38;;;17.27;;
11797;SDS011;5956;51.428;6.682;2023-08-01T05:27:54;18.75;;;16.80;;
11797;SDS011;5956;51.428;6.682;2023-08-01T05:30:21;22.25;;;16.45;;
11797;SDS011;5956;51.428;6.682;2023-08-01T05:32:47;18.58;;;16.58;;
11797;SDS011;5956;51.428;6.682;2023-08-01T05:35:14;19.63;;;16.00;;
11797;SDS011;5956;51.428;6.682;2023-08-01T05:37:42;19.83;;;17.10;;
11797;SDS011;5956;51.428;6.682;2023-08-01T05:40:09;20.27;;;17.85;;
11797;SDS011;5956;51.428;6.682;2023-08-01T05:42:35;23.98;;;20.95;;
11797;SDS011;5956;51.428;6.682;2023-08-01T05:45:02;19.63;;;16.70;;
11797;SDS011;5956;51.428;6.682;2023-08-01T05:47:29;22.73;;;17.35;;
11797;SDS011;5956;51.428;6.682;2023-08-01T05:49:55;19.70;;;16.80;;
11797;SDS011;5956;51.428;6.682;2023-08-01T05:52:22;19.17;;;17.27;;
11797;SDS011;5956;51.428;6.682;2023-08-01T05:54:50;22.77;;;17.15;;
11797;SDS011;5956;51.428;6.682;2023-08-01T05:57:17;18.65;;;16.67;;
11797;SDS011;5956;51.428;6.682;2023-08-01T05:59:44;19.05;;;15.77;;
11797;SDS011;5956;51.428;6.682;2023-08-01T06:02:11;17.30;;;15.55;;
11797;SDS011;5956;51.428;6.682;2023-08-01T06:04:37;18.70;;;15.63;;
11797;SDS011;5956;51.428;6.682;2023-08-01T06:07:04;19.23;;;15.52;;
11797;SDS011;5956;51.428;6.682;2023-08-01T06:09:31;17.35;;;15.00;;
11797;SDS011;5956;51.428;6.682;2023-08-01T06:11:59;20.10;;;15.52;;
11797;SDS011;5956;51.428;6.682;2023-08-01T06:14:25;16.55;;;14.85;;
11797;SDS011;5956;51.428;6.682;2023-08-01T06:16:52;16.70;;;14.25;;
11797;SDS011;5956;51.428;6.682;2023-08-01T06:19:18;17.08;;;15.45;;
11797;SDS011;5956;51.428;6.682;2023-08-01T06:21:45;15.68;;;14.07;;
11797;SDS011;5956;51.428;6.682;2023-08-01T06:24:11;16.98;;;14.45;;
11797;SDS011;5956;51.428;6.682;2023-08-01T06:26:41;16.75;;;14.73;;
11797;SDS011;5956;51.428;6.682;2023-08-01T06:29:08;9.32;;;8.30;;
11797;SDS011;5956;51.428;6.682;2023-08-01T06:31:35;10.48;;;8.40;;
11797;SDS011;5956;51.428;6.682;2023-08-01T06:34:01;9.43;;;8.50;;
11797;SDS011;5956;51.428;6.682;2023-08-01T06:36:28;12.20;;;10.98;;
11797;SDS011;5956;51.428;6.682;2023-08-01T06:38:55;11.20;;;10.00;;
11797;SDS011;5956;51.428;6.682;2023-08-01T06:41:21;12.82;;;10.50;;
11797;SDS011;5956;51.428;6.682;2023-08-01T06:43:48;13.70;;;10.50;;
11797;SDS011;5956;51.428;6.682;2023-08-01T06:46:15;11.93;;;10.38;;
11797;SDS011;5956;51.428;6.682;2023-08-01T06:48:42;12.10;;;10.55;;
11797;SDS011;5956;51.428;6.682;2023-08-01T06:51:08;12.10;;;10.25;;
11797;SDS011;5956;51.428;6.682;2023-08-01T06:53:35;11.98;;;10.68;;
11797;SDS011;5956;51.428;6.682;2023-08-01T06:56:01;14.00;;;12.55;;
11797;SDS011;5956;51.428;6.682;2023-08-01T06:58:28;12.18;;;10.13;;
11797;SDS011;5956;51.428;6.682;2023-08-01T07:00:55;12.25;;;10.23;;
11797;SDS011;5956;51.428;6.682;2023-08-01T07:03:22;13.30;;;10.40;;
11797;SDS011;5956;51.428;6.682;2023-08-01T07:05:49;11.30;;;9.73;;
11797;SDS011;5956;51.428;6.682;2023-08-01T07:08:16;16.23;;;9.27;;
11797;SDS011;5956;51.428;6.682;2023-08-01T07:10:42;11.85;;;9.88;;
11797;SDS011;5956;51.428;6.682;2023-08-01T07:13:08;15.05;;;10.30;;
11797;SDS011;5956;51.428;6.682;2023-08-01T07:15:35;12.68;;;9.57;;
11797;SDS011;5956;51.428;6.682;2023-08-01T07:18:02;10.15;;;8.60;;
11797;SDS011;5956;51.428;6.682;2023-08-01T07:20:29;10.00;;;8.98;;
11797;SDS011;5956;51.428;6.682;2023-08-01T07:22:56;13.23;;;9.38;;
11797;SDS011;5956;51.428;6.682;2023-08-01T07:25:22;11.88;;;9.15;;
11797;SDS011;5956;51.428;6.682;2023-08-01T07:27:50;14.43;;;8.93;;
11797;SDS011;5956;51.428;6.682;2023-08-01T07:30:16;11.63;;;8.60;;
11797;SDS011;5956;51.428;6.682;2023-08-01T07:32:43;12.80;;;8.82;;
11797;SDS011;5956;51.428;6.682;2023-08-01T07:35:09;11.07;;;8.18;;
11797;SDS011;5956;51.428;6.682;2023-08-01T07:37:37;12.13;;;9.45;;
11797;SDS011;5956;51.428;6.682;2023-08-01T07:40:04;16.20;;;9.27;;
11797;SDS011;5956;51.428;6.682;2023-08-01T07:42:31;10.88;;;9.00;;
11797;SDS011;5956;51.428;6.682;2023-08-01T07:44:57;10.82;;;9.15;;
11797;SDS011;5956;51.428;6.682;2023-08-01T07:47:24;13.20;;;10.13;;
11797;SDS011;5956;51.428;6.682;2023-08-01T07:49:51;12.07;;;9.98;;
11797;SDS011;5956;51.428;6.682;2023-08-01T07:52:17;11.48;;;9.60;;
11797;SDS011;5956;51.428;6.682;2023-08-01T07:54:45;14.65;;;9.15;;
11797;SDS011;5956;51.428;6.682;2023-08-01T07:57:12;11.20;;;9.57;;
11797;SDS011;5956;51.428;6.682;2023-08-01T07:59:38;10.63;;;8.77;;
11797;SDS011;5956;51.428;6.682;2023-08-01T08:02:05;10.77;;;9.38;;
11797;SDS011;5956;51.428;6.682;2023-08-01T08:04:31;11.25;;;9.43;;
11797;SDS011;5956;51.428;6.682;2023-08-01T08:06:58;10.77;;;9.10;;
11797;SDS011;5956;51.428;6.682;2023-08-01T08:09:25;18.75;;;13.90;;
11797;SDS011;5956;51.428;6.682;2023-08-01T08:11:53;12.15;;;9.73;;
11797;SDS011;5956;51.428;6.682;2023-08-01T08:14:22;9.35;;;8.40;;
11797;SDS011;5956;51.428;6.682;2023-08-01T08:16:49;11.00;;;8.40;;
11797;SDS011;5956;51.428;6.682;2023-08-01T08:19:15;12.80;;;9.43;;
11797;SDS011;5956;51.428;6.682;2023-08-01T08:21:42;9.85;;;8.30;;
11797;SDS011;5956;51.428;6.682;2023-08-01T08:24:08;10.35;;;8.50;;
11797;SDS011;5956;51.428;6.682;2023-08-01T08:26:35;10.80;;;8.40;;
11797;SDS011;5956;51.428;6.682;2023-08-01T08:29:06;9.02;;;7.32;;
11797;SDS011;5956;51.428;6.682;2023-08-01T08:31:32;9.43;;;8.23;;
11797;SDS011;5956;51.428;6.682;2023-08-01T08:33:59;11.00;;;8.00;;
11797;SDS011;5956;51.428;6.682;2023-08-01T08:36:25;9.65;;;7.90;;
11797;SDS011;5956;51.428;6.682;2023-08-01T08:38:52;9.20;;;7.53;;
11797;SDS011;5956;51.428;6.682;2023-08-01T08:41:20;8.55;;;7.57;;
11797;SDS011;5956;51.428;6.682;2023-08-01T08:43:46;10.18;;;7.55;;
11797;SDS011;5956;51.428;6.682;2023-08-01T08:46:15;9.50;;;7.70;;
11797;SDS011;5956;51.428;6.682;2023-08-01T08:48:42;8.38;;;7.40;;
11797;SDS011;5956;51.428;6.682;2023-08-01T08:51:09;11.50;;;7.65;;
11797;SDS011;5956;51.428;6.682;2023-08-01T08:53:36;9.60;;;7.32;;
11797;SDS011;5956;51.428;6.682;2023-08-01T08:56:02;10.40;;;6.60;;
11797;SDS011;5956;51.428;6.682;2023-08-01T08:58:29;9.55;;;6.85;;
11797;SDS011;5956;51.428;6.682;2023-08-01T09:00:55;7.45;;;5.88;;
11797;SDS011;5956;51.428;6.682;2023-08-01T09:03:24;8.38;;;6.13;;
11797;SDS011;5956;51.428;6.682;2023-08-01T09:05:51;7.68;;;6.60;;
11797;SDS011;5956;51.428;6.682;2023-08-01T09:08:20;6.88;;;5.30;;
11797;SDS011;5956;51.428;6.682;2023-08-01T09:10:49;8.25;;;5.78;;
11797;SDS011;5956;51.428;6.682;2023-08-01T09:13:15;5.97;;;5.38;;
11797;SDS011;5956;51.428;6.682;2023-08-01T09:15:42;7.65;;;5.38;;
11797;SDS011;5956;51.428;6.682;2023-08-01T09:18:09;6.40;;;4.68;;
11797;SDS011;5956;51.428;6.682;2023-08-01T09:20:46;8.48;;;5.05;;
11797;SDS011;5956;51.428;6.682;2023-08-01T09:23:13;8.05;;;5.15;;
11797;SDS011;5956;51.428;6.682;2023-08-01T09:25:40;4.72;;;4.25;;
11797;SDS011;5956;51.428;6.682;2023-08-01T09:28:16;6.43;;;5.03;;
11797;SDS011;5956;51.428;6.682;2023-08-01T09:30:49;6.30;;;4.97;;
11797;SDS011;5956;51.428;6.682;2023-08-01T09:33:16;7.78;;;4.22;;
11797;SDS011;5956;51.428;6.682;2023-08-01T09:35:42;7.38;;;4.40;;
11797;SDS011;5956;51.428;6.682;2023-08-01T09:38:13;6.47;;;4.38;;
11797;SDS011;5956;51.428;6.682;2023-08-01T09:40:40;4.47;;;4.07;;
11797;SDS011;5956;51.428;6.682;2023-08-01T09:43:07;5.20;;;4.30;;
11797;SDS011;5956;51.428;6.682;2023-08-01T09:45:34;5.93;;;4.78;;
11797;SDS011;5956;51.428;6.682;2023-08-01T09:48:00;6.13;;;4.03;;
11797;SDS011;5956;51.428;6.682;2023-08-01T09:50:27;5.85;;;4.43;;
11797;SDS011;5956;51.428;6.682;2023-08-01T09:52:53;6.57;;;4.13;;
11797;SDS011;5956;51.428;6.682;2023-08-01T09:55:23;4.43;;;4.00;;
11797;SDS011;5956;51.428;6.682;2023-08-01T09:57:53;4.80;;;3.40;;
11797;SDS011;5956;51.428;6.682;2023-08-01T10:00:21;5.72;;;3.95;;
11797;SDS011;5956;51.428;6.682;2023-08-01T10:02:48;5.50;;;4.22;;
11797;SDS011;5956;51.428;6.682;2023-08-01T10:05:15;4.60;;;3.65;;
11797;SDS011;5956;51.428;6.682;2023-08-01T10:07:42;4.95;;;3.97;;
11797;SDS011;5956;51.428;6.682;2023-08-01T10:10:09;6.68;;;4.25;;
11797;SDS011;5956;51.428;6.682;2023-08-01T10:12:37;5.07;;;4.15;;
11797;SDS011;5956;51.428;6.682;2023-08-01T10:15:04;5.88;;;4.32;;
11797;SDS011;5956;51.428;6.682;2023-08-01T10:17:31;6.00;;;3.80;;
11797;SDS011;5956;51.428;6.682;2023-08-01T10:19:57;4.95;;;3.63;;
11797;SDS011;5956;51.428;6.682;2023-08-01T10:22:24;4.85;;;3.40;;
11797;SDS011;5956;51.428;6.682;2023-08-01T10:24:51;5.05;;;3.72;;
11797;SDS011;5956;51.428;6.682;2023-08-01T10:27:18;5.28;;;3.88;;
11797;SDS011;5956;51.428;6.682;2023-08-01T10:29:55;6.93;;;3.78;;
11797;SDS011;5956;51.428;6.682;2023-08-01T10:32:27;5.65;;;3.67;;
11797;SDS011;5956;51.428;6.682;2023-08-01T10:34:53;6.90;;;4.43;;
11797;SDS011;5956;51.428;6.682;2023-08-01T10:37:20;5.03;;;4.53;;
11797;SDS011;5956;51.428;6.682;2023-08-01T10:39:55;4.97;;;4.57;;
11797;SDS011;5956;51.428;6.682;2023-08-01T10:42:22;6.80;;;4.85;;
11797;SDS011;5956;51.428;6.682;2023-08-01T10:44:49;4.93;;;4.43;;
11797;SDS011;5956;51.428;6.682;2023-08-01T10:47:24;7.05;;;4.88;;
11797;SDS011;5956;51.428;6.682;2023-08-01T10:49:51;6.13;;;4.78;;
11797;SDS011;5956;51.428;6.682;2023-08-01T10:52:18;7.10;;;5.03;;
11797;SDS011;5956;51.428;6.682;2023-08-01T10:54:45;6.95;;;5.00;;
11797;SDS011;5956;51.428;6.682;2023-08-01T10:57:15;5.22;;;4.38;;
11797;SDS011;5956;51.428;6.682;2023-08-01T10:59:41;4.35;;;3.95;;
11797;SDS011;5956;51.428;6.682;2023-08-01T11:02:09;6.43;;;3.35;;
11797;SDS011;5956;51.428;6.682;2023-08-01T11:04:36;2.35;;;2.17;;
11797;SDS011;5956;51.428;6.682;2023-08-01T11:07:03;3.00;;;2.05;;
11797;SDS011;5956;51.428;6.682;2023-08-01T11:09:30;2.58;;;2.25;;
11797;SDS011;5956;51.428;6.682;2023-08-01T11:11:57;2.97;;;2.20;;
11797;SDS011;5956;51.428;6.682;2023-08-01T11:14:25;3.15;;;2.95;;
11797;SDS011;5956;51.428;6.682;2023-08-01T11:16:53;5.90;;;3.03;;
11797;SDS011;5956;51.428;6.682;2023-08-01T11:19:22;6.38;;;2.97;;
11797;SDS011;5956;51.428;6.682;2023-08-01T11:21:49;4.85;;;3.00;;
11797;SDS011;5956;51.428;6.682;2023-08-01T11:24:16;5.80;;;3.10;;
11797;SDS011;5956;51.428;6.682;2023-08-01T11:26:43;5.05;;;3.33;;
11797;SDS011;5956;51.428;6.682;2023-08-01T11:29:10;4.28;;;3.85;;
11797;SDS011;5956;51.428;6.682;2023-08-01T11:31:36;4.72;;;3.45;;
11797;SDS011;5956;51.428;6.682;2023-08-01T11:34:03;5.60;;;2.92;;
11797;SDS011;5956;51.428;6.682;2023-08-01T11:36:31;4.85;;;3.00;;
11797;SDS011;5956;51.428;6.682;2023-08-01T11:38:57;3.20;;;2.40;;
11797;SDS011;5956;51.428;6.682;2023-08-01T11:41:24;2.88;;;2.15;;
11797;SDS011;5956;51.428;6.682;2023-08-01T11:43:51;3.30;;;2.78;;
11797;SDS011;5956;51.428;6.682;2023-08-01T11:46:19;5.53;;;3.58;;
11797;SDS011;5956;51.428;6.682;2023-08-01T11:48:47;6.88;;;4.25;;
11797;SDS011;5956;51.428;6.682;2023-08-01T11:51:15;3.97;;;2.83;;
11797;SDS011;5956;51.428;6.682;2023-08-01T11:53:43;2.95;;;2.65;;
11797;SDS011;5956;51.428;6.682;2023-08-01T11:56:19;6.00;;;3.20;;
11797;SDS011;5956;51.428;6.682;2023-08-01T11:58:45;4.28;;;3.25;;
11797;SDS011;5956;51.428;6.682;2023-08-01T12:01:12;3.90;;;3.17;;
11797;SDS011;5956;51.428;6.682;2023-08-01T12:03:42;5.40;;;3.88;;
11797;SDS011;5956;51.428;6.682;2023-08-01T12:06:09;4.57;;;3.92;;
11797;SDS011;5956;51.428;6.682;2023-08-01T12:08:37;4.75;;;4.03;;
11797;SDS011;5956;51.428;6.682;2023-08-01T12:11:05;4.93;;;4.07;;
11797;SDS011;5956;51.428;6.682;2023-08-01T12:13:32;7.05;;;4.28;;
11797;SDS011;5956;51.428;6.682;2023-08-01T12:15:58;7.45;;;3.90;;
11797;SDS011;5956;51.428;6.682;2023-08-01T12:18:25;4.38;;;3.97;;
11797;SDS011;5956;51.428;6.682;2023-08-01T12:20:52;4.60;;;3.75;;
11797;SDS011;5956;51.428;6.682;2023-08-01T12:23:19;7.32;;;4.35;;
11797;SDS011;5956;51.428;6.682;2023-08-01T12:25:45;6.05;;;4.32;;
11797;SDS011;5956;51.428;6.682;2023-08-01T12:28:14;6.45;;;3.78;;
11797;SDS011;5956;51.428;6.682;2023-08-01T12:30:41;5.53;;;4.00;;
11797;SDS011;5956;51.428;6.682;2023-08-01T12:33:08;4.13;;;2.97;;
11797;SDS011;5956;51.428;6.682;2023-08-01T12:35:38;3.88;;;2.55;;
11797;SDS011;5956;51.428;6.682;2023-08-01T12:38:04;2.85;;;2.47;;
11797;SDS011;5956;51.428;6.682;2023-08-01T12:40:31;3.90;;;2.40;;
11797;SDS011;5956;51.428;6.682;2023-08-01T12:42:57;4.03;;;2.60;;
11797;SDS011;5956;51.428;6.682;2023-08-01T12:45:25;3.80;;;2.72;;
11797;SDS011;5956;51.428;6.682;2023-08-01T12:47:52;3.55;;;2.40;;
11797;SDS011;5956;51.428;6.682;2023-08-01T12:50:18;3.33;;;2.78;;
11797;SDS011;5956;51.428;6.682;2023-08-01T12:52:45;6.85;;;3.83;;
11797;SDS011;5956;51.428;6.682;2023-08-01T12:55:11;6.70;;;3.75;;
11797;SDS011;5956;51.428;6.682;2023-08-01T12:57:37;5.43;;;2.78;;
11797;SDS011;5956;51.428;6.682;2023-08-01T13:00:04;4.40;;;2.70;;
11797;SDS011;5956;51.428;6.682;2023-08-01T13:02:32;3.92;;;2.65;;
11797;SDS011;5956;51.428;6.682;2023-08-01T13:04:59;3.30;;;2.42;;
11797;SDS011;5956;51.428;6.682;2023-08-01T13:07:25;4.47;;;2.97;;
11797;SDS011;5956;51.428;6.682;2023-08-01T13:09:52;6.03;;;2.53;;
11797;SDS011;5956;51.428;6.682;2023-08-01T13:12:19;6.10;;;2.75;;
11797;SDS011;5956;51.428;6.682;2023-08-01T13:14:45;5.05;;;2.65;;
11797;SDS011;5956;51.428;6.682;2023-08-01T13:17:11;4.05;;;2.72;;
11797;SDS011;5956;51.428;6.682;2023-08-01T13:19:39;5.30;;;2.80;;
11797;SDS011;5956;51.428;6.682;2023-08-01T13:22:06;5.13;;;2.88;;
11797;SDS011;5956;51.428;6.682;2023-08-01T13:24:32;4.88;;;3.10;;
11797;SDS011;5956;51.428;6.682;2023-08-01T13:26:59;5.63;;;2.80;;
11797;SDS011;5956;51.428;6.682;2023-08-01T13:29:26;4.93;;;2.95;;
11797;SDS011;5956;51.428;6.682;2023-08-01T13:31:52;5.18;;;3.03;;
11797;SDS011;5956;51.428;6.682;2023-08-01T13:34:19;4.50;;;3.00;;
11797;SDS011;5956;51.428;6.682;2023-08-01T13:36:46;6.32;;;3.13;;
11797;SDS011;5956;51.428;6.682;2023-08-01T13:39:13;4.90;;;3.17;;
11797;SDS011;5956;51.428;6.682;2023-08-01T13:41:39;6.50;;;3.22;;
11797;SDS011;5956;51.428;6.682;2023-08-01T13:44:06;6.88;;;2.85;;
11797;SDS011;5956;51.428;6.682;2023-08-01T13:46:33;3.88;;;2.67;;
11797;SDS011;5956;51.428;6.682;2023-08-01T13:49:00;5.38;;;2.67;;
11797;SDS011;5956;51.428;6.682;2023-08-01T13:51:26;4.75;;;2.42;;
11797;SDS011;5956;51.428;6.682;2023-08-01T13:53:54;4.82;;;2.55;;
11797;SDS011;5956;51.428;6.682;2023-08-01T13:56:23;3.30;;;2.70;;
11797;SDS011;5956;51.428;6.682;2023-08-01T13:58:50;4.25;;;2.60;;
11797;SDS011;5956;51.428;6.682;2023-08-01T14:01:17;6.00;;;2.60;;
11797;SDS011;5956;51.428;6.682;2023-08-01T14:03:44;4.18;;;2.33;;
11797;SDS011;5956;51.428;6.682;2023-08-01T14:06:12;4.70;;;2.40;;
11797;SDS011;5956;51.428;6.682;2023-08-01T14:08:39;3.45;;;2.30;;
11797;SDS011;5956;51.428;6.682;2023-08-01T14:11:08;3.78;;;2.38;;
11797;SDS011;5956;51.428;6.682;2023-08-01T14:13:35;5.68;;;2.67;;
11797;SDS011;5956;51.428;6.682;2023-08-01T14:16:02;4.43;;;2.50;;
11797;SDS011;5956;51.428;6.682;2023-08-01T14:18:28;4.38;;;2.17;;
11797;SDS011;5956;51.428;6.682;2023-08-01T14:20:55;4.32;;;3.30;;
11797;SDS011;5956;51.428;6.682;2023-08-01T14:23:22;3.65;;;3.35;;
11797;SDS011;5956;51.428;6.682;2023-08-01T14:25:48;3.22;;;2.28;;
11797;SDS011;5956;51.428;6.682;2023-08-01T14:28:16;3.10;;;2.30;;
11797;SDS011;5956;51.428;6.682;2023-08-01T14:30:43;3.22;;;2.45;;
11797;SDS011;5956;51.428;6.682;2023-08-01T14:33:09;3.83;;;2.50;;
11797;SDS011;5956;51.428;6.682;2023-08-01T14:35:37;5.80;;;2.47;;
11797;SDS011;5956;51.428;6.682;2023-08-01T14:38:04;3.42;;;2.45;;
11797;SDS011;5956;51.428;6.682;2023-08-01T14:40:30;3.78;;;2.20;;
11797;SDS011;5956;51.428;6.682;2023-08-01T14:42:57;5.03;;;2.03;;
11797;SDS011;5956;51.428;6.682;2023-08-01T14:45:25;3.33;;;2.22;;
11797;SDS011;5956;51.428;6.682;2023-08-01T14:47:51;4.70;;;2.05;;
11797;SDS011;5956;51.428;6.682;2023-08-01T14:50:18;2.80;;;1.90;;
11797;SDS011;5956;51.428;6.682;2023-08-01T14:52:44;2.47;;;1.90;;